Kilkenny, Ireland

2:09 PM GMT on December 08, 2016 (GMT +0000)
Kilkenny | | Change Station

Elev 160 ft 52.66 °N, 7.25 °W | Updated 2 minutes ago

Mostly Cloudy
Mostly Cloudy
54.5 °F
Feels Like 54.5 °F
N
0.0
Wind Variable Wind from ESE
Gusts 0.0 mph

Today
High -- | Low -- °F
--% Chance of Precip.
Yesterday
High -- | Low -- °F
Precip. -- in
Pressure 30.15 in
Visibility 6.2 miles
Clouds Mostly Cloudy 200 ft
Dew Point 51 °F
Humidity 92%
Rainfall 0.28 in
Snow Depth Not available.
8:27 AM 4:14 PM
Waxing Gibbous, 63% visible
METAR EIWF 081300Z 22005KT 190V260 9999 BKN002 11/11 Q1021 R21/2/////
Pressure 30.15 in
Visibility 6.2 miles
Clouds Mostly Cloudy 200 ft
Dew Point 51 °F
Humidity 92%
Rainfall 0.28 in
Snow Depth Not available.
8:27 AM 4:14 PM
Waxing Gibbous, 63% visible
METAR EIWF 081300Z 22005KT 190V260 9999 BKN002 11/11 Q1021 R21/2/////

10-Day Weather Forecast

×

Almanac

Astronomy

Dec. 08, 2016 Rise Set
Actual Time
Civil Twilight
Nautical Twilight
Astronomical Twilight
Moon
Length of Visible Light
Length of Day
Tomorrow will be .
, % of the Moon is Illuminated

Today's Extremes

Country Highs Country Lows

Community

WunderPhotos

Upload Photos

1,956,268 photos uploaded!

WunderBlog® & News

Nearby

Air Quality

  Air Quality AQ Index Pollutant
Not available.

Snow Depth

Station Depth Elevation

Earthquake Activity

City Distance Mag. Time & Date
Minimum magnitude displayed is 2.5.

Coastal Water Temperatures

Place Temperature

Stations

Nearby Weather Stations

Station Location Temp. Windchill Dew Point Humidity Wind Precip. Elev Updated Type